createdAt,value
2018-03-26T00:00:01.548Z,98773.86
2018-03-26T00:02:29.361Z,98785.68
2018-03-26T00:04:56.977Z,98775.97
2018-03-26T00:07:24.543Z,98774.09
2018-03-26T00:09:52.977Z,98773.04
2018-03-26T00:12:21.648Z,98776.48
2018-03-26T00:14:50.119Z,98780.81
2018-03-26T00:17:18.412Z,98785.38
2018-03-26T00:19:46.925Z,98787.10
2018-03-26T00:22:15.839Z,98788.42
2018-03-26T00:24:44.968Z,98779.04
2018-03-26T00:27:13.137Z,98784.45
2018-03-26T00:29:42.699Z,98782.94
2018-03-26T00:32:10.372Z,98783.23
2018-03-26T00:34:37.895Z,98782.77
2018-03-26T00:37:06.373Z,98782.95
2018-03-26T00:39:34.815Z,98781.50
2018-03-26T00:42:03.076Z,98784.25
2018-03-26T00:44:31.135Z,98786.75
2018-03-26T00:46:59.819Z,98794.64
2018-03-26T00:49:27.378Z,98790.97
2018-03-26T00:51:55.799Z,98795.81
2018-03-26T00:54:24.772Z,98794.98
2018-03-26T00:56:52.325Z,98792.47
2018-03-26T00:59:20.145Z,98800.88
2018-03-26T01:01:47.856Z,98797.73
2018-03-26T01:04:15.699Z,98805.19
2018-03-26T01:06:43.264Z,98799.71
2018-03-26T01:09:11.439Z,98806.30
2018-03-26T01:11:39.186Z,98802.61
2018-03-26T01:14:06.969Z,98807.34
2018-03-26T01:16:35.096Z,98799.47
2018-03-26T01:19:03.004Z,98806.22
2018-03-26T01:21:30.741Z,98802.73
2018-03-26T01:23:58.356Z,98803.41
2018-03-26T01:26:25.939Z,98794.29
2018-03-26T01:28:53.496Z,98818.28
2018-03-26T01:31:21.059Z,98814.48
2018-03-26T01:33:48.611Z,98812.37
2018-03-26T01:36:16.126Z,98815.71
2018-03-26T01:38:43.689Z,98822.54
2018-03-26T01:41:11.240Z,98814.89
2018-03-26T01:43:38.789Z,98827.53
2018-03-26T01:46:06.317Z,98816.48
2018-03-26T01:48:33.877Z,98819.44
2018-03-26T01:51:01.412Z,98818.68
2018-03-26T01:53:28.988Z,98824.11
2018-03-26T01:55:56.528Z,98824.52
2018-03-26T01:58:24.158Z,98833.83
2018-03-26T02:00:54.107Z,98833.95
2018-03-26T02:03:21.838Z,98839.08
2018-03-26T02:05:49.361Z,98835.55
2018-03-26T02:08:16.937Z,98835.69
2018-03-26T02:10:44.451Z,98838.69
2018-03-26T02:13:12.084Z,98838.55
2018-03-26T02:15:39.626Z,98842.06
2018-03-26T02:18:07.186Z,98845.61
2018-03-26T02:20:34.712Z,98850.82
2018-03-26T02:23:02.270Z,98850.82
2018-03-26T02:25:29.865Z,98848.61
2018-03-26T02:27:57.415Z,98845.81
2018-03-26T02:30:24.936Z,98845.55
2018-03-26T02:32:52.498Z,98844.78
2018-03-26T02:35:20.031Z,98845.75
2018-03-26T02:37:47.615Z,98856.97
2018-03-26T02:40:15.140Z,98858.07
2018-03-26T02:42:42.791Z,98853.13
2018-03-26T02:45:10.323Z,98855.20
2018-03-26T02:47:37.851Z,98853.06
2018-03-26T02:50:05.398Z,98859.92
2018-03-26T02:52:32.921Z,98870.06
2018-03-26T02:55:00.495Z,98863.75
2018-03-26T02:57:28.032Z,98870.27
2018-03-26T02:59:55.716Z,98863.53
2018-03-26T03:02:23.250Z,98870.34
2018-03-26T03:04:51.359Z,98874.98
2018-03-26T03:07:18.955Z,98872.09
2018-03-26T03:09:46.541Z,98872.66
2018-03-26T03:12:14.060Z,98877.23
2018-03-26T03:14:41.623Z,98871.67
2018-03-26T03:17:09.154Z,98873.39
2018-03-26T03:19:36.725Z,98881.63
2018-03-26T03:22:04.256Z,98878.27
2018-03-26T03:24:31.843Z,98882.86
2018-03-26T03:26:59.384Z,98881.97
2018-03-26T03:29:26.941Z,98887.67
2018-03-26T03:31:54.470Z,98881.89
2018-03-26T03:34:22.087Z,98885.26
2018-03-26T03:36:49.695Z,98878.97
2018-03-26T03:39:17.263Z,98880.81
2018-03-26T03:41:44.829Z,98894.63
2018-03-26T03:44:12.414Z,98883.48
2018-03-26T03:46:39.941Z,98880.69
2018-03-26T03:49:07.493Z,98886.63
2018-03-26T03:51:35.041Z,98886.71
2018-03-26T03:54:02.608Z,98891.99
2018-03-26T03:56:30.125Z,98891.21
2018-03-26T03:58:57.679Z,98892.39
2018-03-26T04:01:25.288Z,98893.81
2018-03-26T04:03:52.876Z,98900.00
2018-03-26T04:06:20.403Z,98896.16
2018-03-26T04:08:47.975Z,98902.31
2018-03-26T04:11:15.815Z,98905.75
2018-03-26T04:13:43.376Z,98903.03
2018-03-26T04:16:10.895Z,98903.74
2018-03-26T04:18:38.468Z,98904.84
2018-03-26T04:21:06.003Z,98904.72
2018-03-26T04:23:33.529Z,98908.99
2018-03-26T04:26:01.188Z,98905.35
2018-03-26T04:28:28.708Z,98910.84
2018-03-26T04:30:56.315Z,98922.28
2018-03-26T04:33:23.844Z,98912.80
2018-03-26T04:35:51.715Z,98925.30
2018-03-26T04:38:19.256Z,98920.09
2018-03-26T04:40:46.816Z,98918.79
2018-03-26T04:43:14.381Z,98920.89
2018-03-26T04:45:41.936Z,98923.23
2018-03-26T04:48:09.463Z,98925.92
2018-03-26T04:50:37.036Z,98924.39
2018-03-26T04:53:04.572Z,98934.77
2018-03-26T04:55:32.165Z,98935.48
2018-03-26T04:57:59.692Z,98940.58
2018-03-26T05:00:27.268Z,98943.44
2018-03-26T05:02:54.802Z,98931.59
2018-03-26T05:05:22.375Z,98938.30
2018-03-26T05:07:49.936Z,98932.95
2018-03-26T05:10:17.533Z,98932.22
2018-03-26T05:12:45.055Z,98932.33
2018-03-26T05:15:12.612Z,98945.72
2018-03-26T05:17:40.136Z,98948.48
2018-03-26T05:20:07.704Z,98946.07
2018-03-26T05:22:35.229Z,98955.06
2018-03-26T05:25:02.814Z,98956.45
2018-03-26T05:27:30.348Z,98967.42
2018-03-26T05:29:57.899Z,98964.54
2018-03-26T05:32:25.429Z,98966.12
2018-03-26T05:34:52.982Z,98976.30
2018-03-26T05:37:20.496Z,98974.76
2018-03-26T05:39:48.059Z,98982.41
2018-03-26T05:42:15.751Z,98994.57
2018-03-26T05:44:43.504Z,98992.38
2018-03-26T05:47:11.085Z,99002.78
2018-03-26T05:49:40.871Z,99002.52
2018-03-26T05:52:08.394Z,98999.34
2018-03-26T05:54:35.953Z,98987.88
2018-03-26T05:57:03.493Z,98997.17
2018-03-26T05:59:31.046Z,99011.66
2018-03-26T06:01:58.597Z,99004.98
2018-03-26T06:04:26.115Z,99012.05
2018-03-26T06:06:53.775Z,99009.19
2018-03-26T06:09:21.297Z,99011.86
2018-03-26T06:11:48.858Z,99023.45
2018-03-26T06:14:16.453Z,99027.44
2018-03-26T06:16:55.791Z,99023.08
2018-03-26T06:19:23.308Z,99024.73
2018-03-26T06:21:50.876Z,99020.09
2018-03-26T06:24:18.423Z,99028.16
2018-03-26T06:26:45.979Z,99029.69
2018-03-26T06:29:13.500Z,99030.23
2018-03-26T06:31:41.052Z,99026.63
2018-03-26T06:34:08.579Z,99034.22
2018-03-26T06:39:35.941Z,99031.09
2018-03-26T06:42:03.520Z,99040.34
2018-03-26T06:44:31.047Z,99045.77
2018-03-26T06:46:58.601Z,99046.82
2018-03-26T06:49:26.217Z,99049.13
2018-03-26T06:51:53.775Z,99050.78
2018-03-26T06:54:21.343Z,99042.96
2018-03-26T06:56:48.914Z,99047.03
2018-03-26T06:59:16.457Z,99056.96
2018-03-26T07:01:46.256Z,99045.56
2018-03-26T07:04:14.812Z,99051.08
2018-03-26T07:06:42.686Z,99055.45
2018-03-26T07:09:10.204Z,99057.99
2018-03-26T07:11:37.935Z,99061.15
2018-03-26T07:14:06.300Z,99062.38
2018-03-26T07:16:33.873Z,99063.69
2018-03-26T07:19:01.431Z,99070.60
2018-03-26T07:21:33.249Z,99067.43
2018-03-26T07:24:00.770Z,99071.15
2018-03-26T07:26:28.347Z,99066.05
2018-03-26T07:28:55.914Z,99072.40
2018-03-26T07:31:23.486Z,99065.05
2018-03-26T07:33:51.211Z,99073.59
2018-03-26T07:36:18.775Z,99072.55
2018-03-26T07:38:46.667Z,99086.47
2018-03-26T07:41:14.288Z,99085.20
2018-03-26T07:43:42.855Z,99083.15
2018-03-26T07:46:10.514Z,99083.56
2018-03-26T07:48:38.099Z,99082.53
2018-03-26T07:51:05.659Z,99083.33
2018-03-26T07:53:33.199Z,99088.14
2018-03-26T07:56:00.766Z,99086.19
2018-03-26T07:58:28.304Z,99092.97
2018-03-26T08:00:55.959Z,99085.61
2018-03-26T08:03:23.492Z,99102.83
2018-03-26T08:05:51.044Z,99097.22
2018-03-26T08:08:18.574Z,99092.25
2018-03-26T08:10:46.276Z,99096.95
2018-03-26T08:13:13.871Z,99097.95
2018-03-26T08:15:41.437Z,99102.72
2018-03-26T08:18:09.032Z,99109.07
2018-03-26T08:20:36.600Z,99100.42
2018-03-26T08:23:04.271Z,99111.75
2018-03-26T08:25:33.655Z,99112.62
2018-03-26T08:28:01.221Z,99112.30
2018-03-26T08:30:28.754Z,99112.62
2018-03-26T08:32:56.299Z,99122.30
2018-03-26T08:35:23.836Z,99125.02
2018-03-26T08:37:51.401Z,99124.30
2018-03-26T08:40:18.959Z,99126.45
2018-03-26T08:42:46.529Z,99116.74
2018-03-26T08:45:14.048Z,99122.72
2018-03-26T08:47:41.605Z,99132.35
2018-03-26T08:50:09.247Z,99132.37
2018-03-26T08:52:36.700Z,99139.17
2018-03-26T08:55:04.223Z,99151.05
2018-03-26T08:57:31.776Z,99146.80
2018-03-26T08:59:59.335Z,99153.40
2018-03-26T09:02:26.940Z,99153.94
2018-03-26T09:04:54.477Z,99152.86
2018-03-26T09:07:22.045Z,99154.84
2018-03-26T09:09:49.580Z,99163.50
2018-03-26T09:12:17.479Z,99162.16
2018-03-26T09:14:45.026Z,99167.53
2018-03-26T09:17:12.605Z,99164.88
2018-03-26T09:19:40.157Z,99166.06
2018-03-26T09:22:08.197Z,99160.02
2018-03-26T09:24:36.066Z,99155.68
2018-03-26T09:27:03.659Z,99163.54
2018-03-26T09:29:32.501Z,99162.77
2018-03-26T09:32:00.332Z,99164.50
2018-03-26T09:34:27.858Z,99159.73
2018-03-26T09:36:57.427Z,99163.77
2018-03-26T09:39:25.256Z,99161.02
2018-03-26T09:41:54.024Z,99137.13
2018-03-26T09:44:21.573Z,99170.05
2018-03-26T09:46:49.128Z,99165.06
2018-03-26T09:49:16.659Z,99168.05
2018-03-26T09:51:44.226Z,99170.23
2018-03-26T09:54:11.768Z,99172.08
2018-03-26T09:56:40.235Z,99165.77
2018-03-26T09:59:07.844Z,99170.19
2018-03-26T10:04:32.404Z,99174.80
2018-03-26T10:07:00.003Z,99177.41
2018-03-26T10:09:28.076Z,99174.79
2018-03-26T10:11:55.845Z,99174.92
2018-03-26T10:14:24.687Z,99194.33
2018-03-26T10:16:52.485Z,99178.95
2018-03-26T10:19:20.341Z,99176.23
2018-03-26T10:21:47.934Z,99172.33
2018-03-26T10:24:15.846Z,99175.84
2018-03-26T10:26:43.529Z,99174.07
2018-03-26T10:29:11.092Z,99177.98
2018-03-26T10:31:38.648Z,99185.95
2018-03-26T10:34:06.932Z,99180.63
2018-03-26T10:36:34.505Z,99181.09
2018-03-26T10:39:02.227Z,99180.23
2018-03-26T10:41:29.762Z,99177.55
2018-03-26T10:43:57.370Z,99172.22
2018-03-26T10:46:24.912Z,99184.38
2018-03-26T10:48:52.856Z,99190.52
2018-03-26T10:51:20.380Z,99184.84
2018-03-26T10:53:47.981Z,99193.02
2018-03-26T10:56:15.695Z,99189.79
2018-03-26T10:58:43.330Z,99189.84
2018-03-26T11:01:11.329Z,99182.53
2018-03-26T11:03:40.309Z,99177.15
2018-03-26T11:06:07.840Z,99190.34
2018-03-26T11:08:37.662Z,99172.10
2018-03-26T11:11:07.369Z,99180.09
2018-03-26T11:13:38.308Z,99178.79
2018-03-26T11:16:07.909Z,99175.02
2018-03-26T11:18:37.752Z,99168.69
2018-03-26T11:21:07.431Z,99173.46
2018-03-26T11:23:38.255Z,99164.26
2018-03-26T11:26:08.502Z,99171.30
2018-03-26T11:28:38.879Z,99172.91
2018-03-26T11:31:09.738Z,99166.32
2018-03-26T11:33:47.258Z,99174.47
2018-03-26T11:36:21.526Z,99167.75
2018-03-26T11:38:55.394Z,99173.02
2018-03-26T11:41:30.611Z,99159.61
2018-03-26T11:44:01.055Z,99177.23
2018-03-26T11:46:31.070Z,99162.63
2018-03-26T11:49:04.366Z,99172.78
2018-03-26T11:51:37.726Z,99173.66
2018-03-26T11:54:08.783Z,99184.98
2018-03-26T11:56:36.998Z,99181.58
2018-03-26T11:59:05.110Z,99184.25
2018-03-26T12:01:32.715Z,99186.89
2018-03-26T12:04:00.287Z,99190.84
2018-03-26T12:06:27.816Z,99185.98
2018-03-26T12:08:55.432Z,99190.28
2018-03-26T12:11:22.943Z,99184.27
2018-03-26T12:13:50.500Z,99179.92
2018-03-26T12:16:18.023Z,99180.44
2018-03-26T12:18:45.602Z,99172.42
2018-03-26T12:21:13.159Z,99177.66
2018-03-26T12:23:52.654Z,99175.58
2018-03-26T12:26:20.595Z,99181.47
2018-03-26T12:28:59.885Z,99177.23
2018-03-26T12:31:27.442Z,99182.62
2018-03-26T12:34:06.744Z,99168.86
2018-03-26T12:36:34.271Z,99176.27
2018-03-26T12:39:01.836Z,99169.63
2018-03-26T12:41:30.101Z,99164.47
2018-03-26T12:43:57.850Z,99171.63
2018-03-26T12:46:37.247Z,99178.89
2018-03-26T12:49:04.848Z,99179.83
2018-03-26T12:51:44.202Z,99178.79
2018-03-26T12:54:11.782Z,99174.88
2018-03-26T12:56:39.347Z,99178.72
2018-03-26T12:59:06.860Z,99181.66
2018-03-26T13:01:46.144Z,99183.57
2018-03-26T13:04:13.740Z,99177.09
2018-03-26T13:06:41.276Z,99183.80
2018-03-26T13:09:08.856Z,99175.47
2018-03-26T13:11:36.419Z,99177.09
2018-03-26T13:14:04.001Z,99169.27
2018-03-26T13:16:31.551Z,99169.48
2018-03-26T13:18:59.291Z,99170.00
2018-03-26T13:21:27.428Z,99181.73
2018-03-26T13:23:54.960Z,99162.41
2018-03-26T13:26:22.964Z,99164.69
2018-03-26T13:28:50.796Z,99167.45
2018-03-26T13:31:18.437Z,99168.41
2018-03-26T13:33:46.041Z,99158.35
2018-03-26T13:36:13.780Z,99166.91
2018-03-26T13:38:41.365Z,99172.58
2018-03-26T13:41:08.903Z,99167.42
2018-03-26T13:43:36.436Z,99170.56
2018-03-26T13:46:05.024Z,99166.34
2018-03-26T13:48:32.738Z,99167.12
2018-03-26T13:51:00.362Z,99171.01
2018-03-26T13:53:27.900Z,99166.66
2018-03-26T13:55:55.467Z,99172.19
2018-03-26T13:58:22.999Z,99168.63
2018-03-26T14:00:50.584Z,99168.27
2018-03-26T14:03:18.155Z,99164.25
2018-03-26T14:05:45.710Z,99170.09
2018-03-26T14:08:25.074Z,99172.47
2018-03-26T14:11:04.497Z,99176.84
2018-03-26T14:16:49.908Z,99166.01
2018-03-26T14:19:20.735Z,99165.36
2018-03-26T14:21:49.594Z,99162.89
2018-03-26T14:24:18.859Z,99171.48
2018-03-26T14:26:47.071Z,99171.75
2018-03-26T14:29:14.671Z,99176.66
2018-03-26T14:31:43.702Z,99177.46
2018-03-26T14:34:13.982Z,99186.59
2018-03-26T14:36:42.177Z,99177.66
2018-03-26T14:39:12.487Z,99188.87
2018-03-26T14:41:41.384Z,99184.70
2018-03-26T14:44:10.215Z,99184.05
2018-03-26T14:46:40.703Z,99198.76
2018-03-26T14:49:11.430Z,99193.00
2018-03-26T14:51:41.742Z,99188.93
2018-03-26T14:54:13.451Z,99195.61
2018-03-26T14:56:42.325Z,99193.73
2018-03-26T14:59:11.382Z,99184.11
2018-03-26T15:01:39.096Z,99195.05
2018-03-26T15:04:06.976Z,99197.24
2018-03-26T15:06:34.548Z,99201.03
2018-03-26T15:09:02.072Z,99203.58
2018-03-26T15:11:30.032Z,99209.98
2018-03-26T15:13:57.889Z,99174.42
2018-03-26T15:16:25.464Z,99211.30
2018-03-26T15:18:53.002Z,99211.39
2018-03-26T15:21:20.532Z,99197.24
2018-03-26T15:23:48.116Z,99206.39
2018-03-26T15:26:15.673Z,99206.23
2018-03-26T15:28:43.229Z,99214.90
2018-03-26T15:31:10.761Z,99210.09
2018-03-26T15:33:38.332Z,99213.56
2018-03-26T15:36:05.868Z,99213.28
2018-03-26T15:38:33.428Z,99213.48
2018-03-26T15:41:00.962Z,99213.38
2018-03-26T15:43:28.506Z,99206.45
2018-03-26T15:45:56.060Z,99218.05
2018-03-26T15:48:23.627Z,99208.67
2018-03-26T15:50:51.215Z,99212.05
2018-03-26T15:53:18.757Z,99208.45
2018-03-26T15:55:46.276Z,99215.23
2018-03-26T15:58:13.830Z,99224.13
2018-03-26T16:00:41.349Z,99222.20
2018-03-26T16:06:05.684Z,99222.38
2018-03-26T16:08:33.250Z,99225.59
2018-03-26T16:11:00.802Z,99232.97
2018-03-26T16:13:28.380Z,99229.38
2018-03-26T16:15:55.929Z,99230.92
2018-03-26T16:18:23.487Z,99240.88
2018-03-26T16:20:51.044Z,99233.00
2018-03-26T16:23:18.594Z,99248.31
2018-03-26T16:25:46.120Z,99241.11
2018-03-26T16:28:13.680Z,99244.69
2018-03-26T16:30:41.248Z,99244.73
2018-03-26T16:33:09.138Z,99247.29
2018-03-26T16:35:39.706Z,99241.35
2018-03-26T16:38:07.272Z,99245.94
2018-03-26T16:40:34.811Z,99245.14
2018-03-26T16:43:05.278Z,99257.30
2018-03-26T16:45:32.824Z,99245.03
2018-03-26T16:48:00.353Z,99253.79
2018-03-26T16:50:28.975Z,99255.14
2018-03-26T16:52:56.522Z,99265.64
2018-03-26T16:55:24.103Z,99254.69
2018-03-26T16:57:51.636Z,99259.66
2018-03-26T17:00:20.387Z,99257.05
2018-03-26T17:02:48.111Z,99278.23
2018-03-26T17:05:16.166Z,99265.77
2018-03-26T17:07:43.797Z,99269.04
2018-03-26T17:10:11.320Z,99273.91
2018-03-26T17:12:38.887Z,99275.31
2018-03-26T17:15:06.848Z,99277.74
2018-03-26T17:17:34.370Z,99277.20
2018-03-26T17:20:06.472Z,99291.94
2018-03-26T17:22:34.828Z,99290.14
2018-03-26T17:25:03.415Z,99287.86
2018-03-26T17:27:31.221Z,99284.98
2018-03-26T17:29:59.722Z,99305.64
2018-03-26T17:32:27.260Z,99292.78
2018-03-26T17:34:54.996Z,99298.98
2018-03-26T17:37:22.727Z,99305.64
2018-03-26T17:39:50.413Z,99297.25
2018-03-26T17:42:18.667Z,99302.09
2018-03-26T17:44:46.516Z,99299.36
2018-03-26T17:47:14.047Z,99304.85
2018-03-26T17:49:42.102Z,99314.59
2018-03-26T17:52:10.368Z,99307.16
2018-03-26T17:54:41.978Z,99305.42
2018-03-26T17:57:09.608Z,99307.63
2018-03-26T17:59:37.223Z,99308.23
2018-03-26T18:02:05.363Z,99308.66
2018-03-26T18:04:33.070Z,99314.73
2018-03-26T18:07:00.872Z,99321.53
2018-03-26T18:09:28.416Z,99318.55
2018-03-26T18:11:56.944Z,99316.85
2018-03-26T18:14:26.622Z,99319.98
2018-03-26T18:16:54.379Z,99330.22
2018-03-26T18:19:22.832Z,99323.66
2018-03-26T18:21:51.005Z,99327.86
2018-03-26T18:24:19.234Z,99334.05
2018-03-26T18:26:46.936Z,99337.66
2018-03-26T18:29:15.317Z,99339.95
2018-03-26T18:31:43.143Z,99347.64
2018-03-26T18:34:11.228Z,99339.27
2018-03-26T18:36:39.302Z,99340.39
2018-03-26T18:39:06.880Z,99341.53
2018-03-26T18:41:34.867Z,99335.89
2018-03-26T18:44:02.699Z,99346.03
2018-03-26T18:46:31.684Z,99343.48
2018-03-26T18:48:59.277Z,99354.70
2018-03-26T18:51:27.184Z,99345.30
2018-03-26T18:53:55.897Z,99352.09
2018-03-26T18:56:25.530Z,99354.97
2018-03-26T18:58:53.720Z,99350.61
2018-03-26T19:01:21.885Z,99351.63
2018-03-26T19:03:52.869Z,99350.20
2018-03-26T19:06:23.401Z,99361.03
2018-03-26T19:08:54.277Z,99370.86
2018-03-26T19:11:22.928Z,99374.69
2018-03-26T19:13:53.682Z,99365.21
2018-03-26T19:16:22.774Z,99369.70
2018-03-26T19:18:50.326Z,99369.34
2018-03-26T19:21:17.918Z,99368.56
2018-03-26T19:23:45.438Z,99382.22
2018-03-26T19:26:12.996Z,99379.80
2018-03-26T19:28:40.982Z,99379.30
2018-03-26T19:31:08.472Z,99380.41
2018-03-26T19:33:36.049Z,99377.90
2018-03-26T19:36:04.368Z,99380.48
2018-03-26T19:38:32.328Z,99386.39
2018-03-26T19:40:59.893Z,99380.52
2018-03-26T19:43:27.917Z,99376.78
2018-03-26T19:45:55.465Z,99377.19
2018-03-26T19:48:23.313Z,99375.53
2018-03-26T19:50:50.882Z,99347.32
2018-03-26T19:53:18.428Z,99361.52
2018-03-26T19:55:45.943Z,99363.86
2018-03-26T19:58:13.515Z,99364.12
2018-03-26T20:00:43.404Z,99358.94
2018-03-26T20:03:11.429Z,99370.45
2018-03-26T20:05:39.113Z,99363.09
2018-03-26T20:08:06.651Z,99366.08
2018-03-26T20:10:34.184Z,99362.48
2018-03-26T20:13:01.756Z,99362.61
2018-03-26T20:15:29.317Z,99367.58
2018-03-26T20:17:56.832Z,99368.61
2018-03-26T20:20:24.562Z,99371.38
2018-03-26T20:22:52.490Z,99373.48
2018-03-26T20:25:20.499Z,99372.78
2018-03-26T20:27:48.599Z,99371.64
2018-03-26T20:30:18.236Z,99386.24
2018-03-26T20:32:46.134Z,99377.08
2018-03-26T20:35:13.675Z,99380.45
2018-03-26T20:37:41.276Z,99394.27
2018-03-26T20:40:08.879Z,99391.03
2018-03-26T20:42:36.430Z,99383.91
2018-03-26T20:45:04.017Z,99392.42
2018-03-26T20:47:32.715Z,99392.49
2018-03-26T20:50:00.288Z,99395.52
2018-03-26T20:52:29.426Z,99386.89
2018-03-26T20:54:57.128Z,99388.31
2018-03-26T20:57:25.243Z,99385.20
2018-03-26T20:59:52.784Z,99383.44
2018-03-26T21:02:20.335Z,99391.50
2018-03-26T21:04:47.864Z,99390.22
2018-03-26T21:07:15.405Z,99408.80
2018-03-26T21:09:42.949Z,99404.11
2018-03-26T21:12:10.503Z,99397.23
2018-03-26T21:14:38.020Z,99405.96
2018-03-26T21:17:05.581Z,99403.51
2018-03-26T21:19:33.348Z,99407.60
2018-03-26T21:22:00.901Z,99413.30
2018-03-26T21:24:28.435Z,99411.73
2018-03-26T21:26:56.003Z,99412.44
2018-03-26T21:29:23.556Z,99405.58
2018-03-26T21:31:51.118Z,99408.28
2018-03-26T21:34:18.720Z,99397.32
2018-03-26T21:36:46.916Z,99399.53
2018-03-26T21:39:14.463Z,99396.65
2018-03-26T21:41:42.017Z,99400.84
2018-03-26T21:44:09.541Z,99393.96
2018-03-26T21:46:37.116Z,99399.92
2018-03-26T21:49:04.660Z,99392.95
2018-03-26T21:51:32.231Z,99390.15
2018-03-26T21:53:59.755Z,99389.19
2018-03-26T21:56:27.311Z,99391.30
2018-03-26T21:58:54.834Z,99391.23
2018-03-26T22:01:22.402Z,99384.77
2018-03-26T22:03:49.936Z,99385.25
2018-03-26T22:06:17.540Z,99397.57
2018-03-26T22:08:45.072Z,99388.02
2018-03-26T22:11:18.242Z,99399.44
2018-03-26T22:13:48.248Z,99394.12
2018-03-26T22:16:16.386Z,99394.83
2018-03-26T22:18:44.497Z,99391.55
2018-03-26T22:21:13.112Z,99391.08
2018-03-26T22:23:42.295Z,99391.51
2018-03-26T22:26:10.811Z,99399.66
2018-03-26T22:28:39.721Z,99396.16
2018-03-26T22:31:09.313Z,99393.92
2018-03-26T22:33:37.488Z,99393.63
2018-03-26T22:36:06.535Z,99390.25
2018-03-26T22:38:34.864Z,99391.40
2018-03-26T22:41:04.400Z,99389.89
2018-03-26T22:43:33.224Z,99380.19
2018-03-26T22:46:00.847Z,99385.63
2018-03-26T22:48:30.611Z,99386.22
2018-03-26T22:51:00.377Z,99394.98
2018-03-26T22:53:30.113Z,99378.29
2018-03-26T22:55:57.765Z,99392.61
2018-03-26T22:58:25.317Z,99398.13
2018-03-26T23:00:52.841Z,99387.45
2018-03-26T23:03:20.413Z,99391.70
2018-03-26T23:05:47.931Z,99389.00
2018-03-26T23:08:15.501Z,99395.80
2018-03-26T23:10:43.044Z,99394.18
2018-03-26T23:13:10.614Z,99392.66
2018-03-26T23:15:38.154Z,99396.06
2018-03-26T23:18:05.728Z,99399.95
2018-03-26T23:20:34.376Z,99392.48
2018-03-26T23:23:03.503Z,99398.05
2018-03-26T23:25:31.132Z,99390.06
2018-03-26T23:27:58.683Z,99395.03
2018-03-26T23:30:26.210Z,99405.11
2018-03-26T23:32:53.755Z,99393.14
2018-03-26T23:35:21.274Z,99400.19
2018-03-26T23:37:48.874Z,99392.72
2018-03-26T23:40:18.918Z,99400.59
2018-03-26T23:42:46.544Z,99390.47
2018-03-26T23:45:14.060Z,99393.48
2018-03-26T23:47:41.626Z,99394.55
2018-03-26T23:50:09.155Z,99410.72
2018-03-26T23:52:36.716Z,99406.29
2018-03-26T23:55:04.250Z,99393.23
2018-03-26T23:57:31.869Z,99394.35
2018-03-26T23:59:59.426Z,99380.52
